createdAt,value
2023-04-19T00:01:48.478Z,100962.00
2023-04-19T00:04:16.296Z,100960.41
2023-04-19T00:06:44.694Z,100960.75
2023-04-19T00:09:12.254Z,100960.81
2023-04-19T00:11:39.782Z,100956.84
2023-04-19T00:14:07.177Z,100960.28
2023-04-19T00:16:34.810Z,100950.50
2023-04-19T00:19:02.346Z,100949.19
2023-04-19T00:21:29.765Z,100939.94
2023-04-19T00:23:57.309Z,100929.88
2023-04-19T00:26:24.655Z,100922.94
2023-04-19T00:28:52.050Z,100914.34
2023-04-19T00:31:19.493Z,100912.69
2023-04-19T00:33:47.019Z,100913.53
2023-04-19T00:36:14.384Z,100920.59
2023-04-19T00:38:41.802Z,100924.88
2023-04-19T00:41:09.208Z,100932.22
2023-04-19T00:43:36.984Z,100927.28
2023-04-19T00:46:05.102Z,100923.09
2023-04-19T00:48:32.802Z,100926.97
2023-04-19T00:51:00.304Z,100932.97
2023-04-19T00:53:27.793Z,100935.91
2023-04-19T00:55:58.902Z,100928.59
2023-04-19T00:58:28.489Z,100927.94
2023-04-19T01:00:55.876Z,100926.97
2023-04-19T01:03:23.450Z,100918.34
2023-04-19T01:05:50.880Z,100912.59
2023-04-19T01:08:18.222Z,100908.03
2023-04-19T01:10:45.741Z,100906.69
2023-04-19T01:13:13.389Z,100904.25
2023-04-19T01:15:40.862Z,100907.53
2023-04-19T01:18:09.405Z,100901.13
2023-04-19T01:20:36.988Z,100899.16
2023-04-19T01:23:04.332Z,100897.03
2023-04-19T01:25:31.687Z,100891.31
2023-04-19T01:27:59.116Z,100884.94
2023-04-19T01:30:26.551Z,100890.03
2023-04-19T01:32:54.010Z,100885.75
2023-04-19T01:35:21.547Z,100889.59
2023-04-19T01:37:49.026Z,100884.94
2023-04-19T01:40:16.778Z,100897.78
2023-04-19T01:42:44.415Z,100902.69
2023-04-19T01:45:11.827Z,100907.56
2023-04-19T01:47:39.230Z,100906.22
2023-04-19T01:50:07.448Z,100907.47
2023-04-19T01:52:35.024Z,100904.22
2023-04-19T01:55:02.382Z,100901.38
2023-04-19T01:57:30.208Z,100907.00
2023-04-19T01:59:57.659Z,100906.41
2023-04-19T02:02:25.203Z,100909.38
2023-04-19T02:04:52.679Z,100901.59
2023-04-19T02:07:20.154Z,100892.28
2023-04-19T02:09:47.450Z,100890.84
2023-04-19T02:12:14.831Z,100884.69
2023-04-19T02:14:42.171Z,100877.88
2023-04-19T02:17:09.612Z,100891.66
2023-04-19T02:19:37.146Z,100894.38
2023-04-19T02:22:04.563Z,100897.78
2023-04-19T02:24:31.921Z,100902.81
2023-04-19T02:27:00.981Z,100900.53
2023-04-19T02:29:28.358Z,100899.97
2023-04-19T02:31:55.756Z,100897.22
2023-04-19T02:34:23.211Z,100897.50
2023-04-19T02:36:50.990Z,100900.50
2023-04-19T02:39:18.624Z,100897.53
2023-04-19T02:41:45.987Z,100890.47
2023-04-19T02:44:13.563Z,100894.16
2023-04-19T02:46:41.315Z,100891.00
2023-04-19T02:49:09.438Z,100886.72
2023-04-19T02:51:37.085Z,100875.38
2023-04-19T02:54:04.582Z,100867.66
2023-04-19T02:56:31.989Z,100864.19
2023-04-19T02:59:03.364Z,100865.03
2023-04-19T03:01:31.370Z,100865.03
2023-04-19T03:03:59.160Z,100863.38
2023-04-19T03:06:26.555Z,100870.66
2023-04-19T03:08:53.917Z,100874.94
2023-04-19T03:11:21.916Z,100877.00
2023-04-19T03:13:49.301Z,100887.78
2023-04-19T03:16:17.129Z,100883.13
2023-04-19T03:18:45.825Z,100877.84
2023-04-19T03:21:14.686Z,100874.91
2023-04-19T03:23:42.091Z,100880.25
2023-04-19T03:26:09.504Z,100884.44
2023-04-19T03:28:36.945Z,100881.97
2023-04-19T03:31:04.375Z,100876.84
2023-04-19T03:33:31.794Z,100884.03
2023-04-19T03:35:59.250Z,100875.75
2023-04-19T03:38:26.570Z,100877.50
2023-04-19T03:40:56.079Z,100877.94
2023-04-19T03:43:24.549Z,100867.28
2023-04-19T03:45:52.086Z,100861.28
2023-04-19T03:48:19.549Z,100858.13
2023-04-19T03:50:46.883Z,100845.56
2023-04-19T03:53:14.220Z,100853.00
2023-04-19T03:55:41.587Z,100841.59
2023-04-19T03:58:09.304Z,100852.63
2023-04-19T04:00:37.131Z,100848.53
2023-04-19T04:03:04.725Z,100851.72
2023-04-19T04:05:32.561Z,100858.59
2023-04-19T04:08:00.394Z,100858.66
2023-04-19T04:10:27.756Z,100853.66
2023-04-19T04:12:55.265Z,100843.38
2023-04-19T04:15:22.669Z,100851.88
2023-04-19T04:17:51.358Z,100844.72
2023-04-19T04:20:19.184Z,100837.66
2023-04-19T04:22:47.444Z,100830.22
2023-04-19T04:25:15.983Z,100833.75
2023-04-19T04:27:47.786Z,100832.44
2023-04-19T04:30:15.200Z,100830.53
2023-04-19T04:32:43.423Z,100817.53
2023-04-19T04:35:11.433Z,100806.50
2023-04-19T04:37:38.792Z,100800.91
2023-04-19T04:40:06.804Z,100812.25
2023-04-19T04:42:34.682Z,100812.38
2023-04-19T04:45:02.176Z,100817.63
2023-04-19T04:47:34.038Z,100805.53
2023-04-19T04:50:02.480Z,100804.41
2023-04-19T04:52:30.379Z,100802.56
2023-04-19T04:54:57.753Z,100809.25
2023-04-19T04:57:25.096Z,100810.19
2023-04-19T04:59:52.411Z,100818.09
2023-04-19T05:02:19.959Z,100815.38
2023-04-19T05:04:47.637Z,100816.75
2023-04-19T05:07:15.135Z,100829.63
2023-04-19T05:09:42.743Z,100823.91
2023-04-19T05:12:10.080Z,100829.94
2023-04-19T05:14:37.487Z,100834.81
2023-04-19T05:17:06.982Z,100830.75
2023-04-19T05:19:34.511Z,100835.66
2023-04-19T05:22:01.892Z,100829.84
2023-04-19T05:24:29.373Z,100819.50
2023-04-19T05:26:56.869Z,100825.16
2023-04-19T05:29:24.176Z,100834.47
2023-04-19T05:31:52.114Z,100832.09
2023-04-19T05:34:21.948Z,100838.50
2023-04-19T05:36:49.795Z,100833.25
2023-04-19T05:39:17.368Z,100844.06
2023-04-19T05:41:44.810Z,100848.00
2023-04-19T05:44:12.143Z,100847.47
2023-04-19T05:46:39.669Z,100859.44
2023-04-19T05:49:07.244Z,100852.19
2023-04-19T05:51:34.626Z,100867.84
2023-04-19T05:54:02.031Z,100870.97
2023-04-19T05:56:30.135Z,100898.97
2023-04-19T05:58:57.573Z,100916.44
2023-04-19T06:01:24.942Z,100920.06
2023-04-19T06:03:54.432Z,100925.59
2023-04-19T06:06:23.153Z,100920.31
2023-04-19T06:08:53.332Z,100915.53
2023-04-19T06:11:31.354Z,100917.78
2023-04-19T06:14:06.372Z,100924.88
2023-04-19T06:16:35.482Z,100905.31
2023-04-19T06:19:02.866Z,100905.75
2023-04-19T06:21:31.931Z,100915.84
2023-04-19T06:23:59.292Z,100920.59
2023-04-19T06:26:26.758Z,100906.97
2023-04-19T06:28:54.258Z,100910.25
2023-04-19T06:31:21.800Z,100921.38
2023-04-19T06:33:49.484Z,100903.56
2023-04-19T06:36:16.821Z,100899.84
2023-04-19T06:38:46.980Z,100890.75
2023-04-19T06:41:14.386Z,100897.31
2023-04-19T06:43:42.897Z,100893.81
2023-04-19T06:46:10.528Z,100892.56
2023-04-19T06:48:38.197Z,100904.16
2023-04-19T06:51:06.112Z,100898.13
2023-04-19T06:53:35.753Z,100897.34
2023-04-19T06:56:06.645Z,100901.06
2023-04-19T06:58:35.531Z,100902.75
2023-04-19T07:01:04.911Z,100899.78
2023-04-19T07:03:33.188Z,100905.22
2023-04-19T07:06:00.940Z,100900.88
2023-04-19T07:08:42.457Z,100902.31
2023-04-19T07:11:15.907Z,100898.34
2023-04-19T07:13:43.634Z,100892.00
2023-04-19T07:16:11.346Z,100888.88
2023-04-19T07:18:38.806Z,100874.69
2023-04-19T07:21:06.191Z,100853.38
2023-04-19T07:23:33.618Z,100856.25
2023-04-19T07:26:01.031Z,100852.47
2023-04-19T07:28:31.776Z,100848.50
2023-04-19T07:31:01.029Z,100843.09
2023-04-19T07:33:28.618Z,100844.28
2023-04-19T07:35:56.740Z,100834.19
2023-04-19T07:38:25.198Z,100844.91
2023-04-19T07:40:52.664Z,100837.38
2023-04-19T07:43:21.285Z,100836.72
2023-04-19T07:45:48.607Z,100839.34
2023-04-19T07:48:16.004Z,100841.63
2023-04-19T07:50:43.621Z,100837.41
2023-04-19T07:53:11.236Z,100839.41
2023-04-19T07:55:38.580Z,100841.34
2023-04-19T07:58:06.438Z,100844.09
2023-04-19T08:00:36.738Z,100852.25
2023-04-19T08:03:04.780Z,100856.50
2023-04-19T08:05:32.374Z,100846.59
2023-04-19T08:07:59.825Z,100855.94
2023-04-19T08:10:28.931Z,100849.84
2023-04-19T08:13:04.472Z,100841.84
2023-04-19T08:18:05.719Z,100836.00
2023-04-19T08:20:33.941Z,100836.53
2023-04-19T08:23:10.413Z,100833.22
2023-04-19T08:25:41.916Z,100832.06
2023-04-19T08:28:09.442Z,100827.41
2023-04-19T08:30:37.026Z,100835.19
2023-04-19T08:33:04.507Z,100837.25
2023-04-19T08:35:32.144Z,100829.44
2023-04-19T08:37:59.614Z,100831.94
2023-04-19T08:40:27.119Z,100826.28
2023-04-19T08:42:54.583Z,100822.53
2023-04-19T08:45:28.588Z,100833.19
2023-04-19T08:48:01.181Z,100835.09
2023-04-19T08:50:35.989Z,100830.28
2023-04-19T08:55:59.162Z,100825.94
2023-04-19T08:58:51.963Z,100832.66
2023-04-19T09:04:02.561Z,100836.66
2023-04-19T09:06:41.818Z,100834.31
2023-04-19T09:11:57.368Z,100829.66
2023-04-19T09:14:27.674Z,100833.41
2023-04-19T09:17:11.644Z,100820.25
2023-04-19T09:19:50.068Z,100830.09
2023-04-19T09:22:18.194Z,100831.09
2023-04-19T09:25:22.746Z,100817.97
2023-04-19T09:27:36.472Z,100824.00
2023-04-19T09:30:07.275Z,100830.16
2023-04-19T09:32:47.702Z,100829.72
2023-04-19T09:35:15.617Z,100836.22
2023-04-19T09:40:24.324Z,100848.41
2023-04-19T09:48:10.114Z,100850.50
2023-04-19T09:50:57.367Z,100850.31
2023-04-19T09:53:30.739Z,100846.88
2023-04-19T09:56:02.337Z,100852.88
2023-04-19T09:58:42.580Z,100841.00
2023-04-19T10:01:19.476Z,100847.38
2023-04-19T10:03:49.879Z,100849.97
2023-04-19T10:08:53.562Z,100854.66
2023-04-19T10:11:22.864Z,100847.44
2023-04-19T10:13:57.451Z,100860.63
2023-04-19T10:16:26.626Z,100860.25
2023-04-19T10:18:55.320Z,100867.91
2023-04-19T10:21:23.399Z,100871.00
2023-04-19T10:23:51.079Z,100864.69
2023-04-19T10:26:18.498Z,100853.13
2023-04-19T10:28:47.467Z,100858.56
2023-04-19T10:31:14.935Z,100869.53
2023-04-19T10:33:42.469Z,100879.97
2023-04-19T10:36:11.911Z,100873.78
2023-04-19T10:38:49.264Z,100877.44
2023-04-19T10:41:21.021Z,100874.38
2023-04-19T10:43:57.833Z,100868.13
2023-04-19T10:46:26.178Z,100877.88
2023-04-19T10:48:57.635Z,100871.84
2023-04-19T10:51:29.386Z,100883.78
2023-04-19T10:54:01.811Z,100889.78
2023-04-19T10:56:35.499Z,100880.59
2023-04-19T10:59:03.061Z,100877.34
2023-04-19T11:01:40.773Z,100878.38
2023-04-19T11:04:24.007Z,100877.97
2023-04-19T11:06:51.881Z,100872.47
2023-04-19T11:09:38.908Z,100880.00
2023-04-19T11:12:12.551Z,100880.94
2023-04-19T11:14:45.549Z,100876.00
2023-04-19T11:17:27.693Z,100881.41
2023-04-19T11:20:00.210Z,100873.53
2023-04-19T11:22:36.207Z,100874.56
2023-04-19T11:25:12.699Z,100880.81
2023-04-19T11:27:43.117Z,100872.94
2023-04-19T11:30:13.506Z,100871.28
2023-04-19T11:32:48.978Z,100876.25
2023-04-19T11:35:21.022Z,100880.22
2023-04-19T11:37:49.022Z,100870.13
2023-04-19T11:40:18.758Z,100869.78
2023-04-19T11:42:47.172Z,100879.16
2023-04-19T11:45:32.244Z,100867.31
2023-04-19T11:48:04.458Z,100876.06
2023-04-19T11:50:38.929Z,100877.31
2023-04-19T11:53:22.464Z,100875.84
2023-04-19T11:55:54.911Z,100870.66
2023-04-19T11:58:44.668Z,100881.47
2023-04-19T12:01:14.035Z,100877.16
2023-04-19T12:03:45.228Z,100876.59
2023-04-19T12:06:15.696Z,100875.97
2023-04-19T12:08:44.035Z,100872.78
2023-04-19T12:11:11.518Z,100869.09
2023-04-19T12:13:40.917Z,100867.97
2023-04-19T12:16:08.883Z,100864.69
2023-04-19T12:18:51.072Z,100872.34
2023-04-19T12:21:29.527Z,100876.13
2023-04-19T12:23:58.584Z,100868.81
2023-04-19T12:26:28.512Z,100862.69
2023-04-19T12:28:57.139Z,100861.03
2023-04-19T12:31:25.102Z,100857.22
2023-04-19T12:33:52.487Z,100867.31
2023-04-19T12:36:21.198Z,100874.41
2023-04-19T12:38:48.591Z,100868.28
2023-04-19T12:41:16.132Z,100861.19
2023-04-19T12:43:43.515Z,100861.84
2023-04-19T12:46:11.077Z,100866.34
2023-04-19T12:48:38.634Z,100867.84
2023-04-19T12:51:06.166Z,100868.66
2023-04-19T12:53:33.618Z,100879.47
2023-04-19T12:56:01.081Z,100867.88
2023-04-19T12:58:28.429Z,100871.41
2023-04-19T13:00:55.867Z,100864.22
2023-04-19T13:03:23.326Z,100866.75
2023-04-19T13:05:51.178Z,100867.75
2023-04-19T13:08:28.318Z,100863.41
2023-04-19T13:11:04.919Z,100862.63
2023-04-19T13:13:32.622Z,100861.50
2023-04-19T13:16:00.585Z,100859.47
2023-04-19T13:18:28.254Z,100858.16
2023-04-19T13:20:55.633Z,100869.00
2023-04-19T13:23:23.071Z,100870.28
2023-04-19T13:25:50.607Z,100859.00
2023-04-19T13:28:18.001Z,100861.03
2023-04-19T13:30:45.442Z,100855.72
2023-04-19T13:33:12.768Z,100860.09
2023-04-19T13:35:41.375Z,100861.59
2023-04-19T13:38:08.838Z,100862.44
2023-04-19T13:40:36.188Z,100857.88
2023-04-19T13:43:03.608Z,100855.97
2023-04-19T13:45:31.213Z,100859.97
2023-04-19T13:47:58.585Z,100850.81
2023-04-19T13:50:26.095Z,100855.34
2023-04-19T13:52:53.610Z,100851.22
2023-04-19T13:55:21.331Z,100850.22
2023-04-19T13:57:48.722Z,100854.19
2023-04-19T14:00:16.627Z,100851.88
2023-04-19T14:02:45.508Z,100861.84
2023-04-19T14:05:13.055Z,100855.81
2023-04-19T14:07:40.886Z,100853.56
2023-04-19T14:10:09.964Z,100850.56
2023-04-19T14:12:38.031Z,100845.22
2023-04-19T14:15:05.756Z,100846.63
2023-04-19T14:17:33.311Z,100841.09
2023-04-19T14:20:00.769Z,100838.78
2023-04-19T14:22:28.166Z,100841.53
2023-04-19T14:24:56.437Z,100839.41
2023-04-19T14:27:26.366Z,100836.47
2023-04-19T14:29:53.812Z,100837.59
2023-04-19T14:32:26.487Z,100841.72
2023-04-19T14:34:56.332Z,100840.06
2023-04-19T14:37:24.678Z,100832.78
2023-04-19T14:39:52.358Z,100837.53
2023-04-19T14:42:22.547Z,100840.16
2023-04-19T14:44:52.273Z,100839.34
2023-04-19T14:47:21.181Z,100838.94
2023-04-19T14:49:48.935Z,100843.19
2023-04-19T14:52:16.895Z,100842.41
2023-04-19T14:54:44.343Z,100837.50
2023-04-19T14:57:12.185Z,100836.97
2023-04-19T14:59:39.595Z,100837.13
2023-04-19T15:02:07.597Z,100832.91
2023-04-19T15:04:37.408Z,100838.22
2023-04-19T15:07:07.322Z,100829.06
2023-04-19T15:09:35.686Z,100831.81
2023-04-19T15:12:03.282Z,100825.94
2023-04-19T15:14:30.785Z,100827.41
2023-04-19T15:16:58.261Z,100820.63
2023-04-19T15:19:25.740Z,100817.16
2023-04-19T15:21:53.127Z,100820.28
2023-04-19T15:24:20.540Z,100817.56
2023-04-19T15:26:47.943Z,100816.13
2023-04-19T15:29:15.669Z,100812.25
2023-04-19T15:31:43.375Z,100801.28
2023-04-19T15:34:10.813Z,100803.69
2023-04-19T15:36:38.223Z,100799.25
2023-04-19T15:39:05.610Z,100790.88
2023-04-19T15:41:33.109Z,100796.16
2023-04-19T15:44:01.216Z,100789.66
2023-04-19T15:46:28.660Z,100786.31
2023-04-19T15:48:56.187Z,100795.94
2023-04-19T15:51:23.577Z,100791.59
2023-04-19T15:53:50.938Z,100792.22
2023-04-19T15:56:18.317Z,100787.28
2023-04-19T15:58:45.741Z,100789.34
2023-04-19T16:01:13.555Z,100795.59
2023-04-19T16:03:41.453Z,100791.72
2023-04-19T16:06:09.839Z,100791.72
2023-04-19T16:08:37.483Z,100785.00
2023-04-19T16:11:06.137Z,100784.28
2023-04-19T16:13:33.524Z,100780.56
2023-04-19T16:16:01.827Z,100781.59
2023-04-19T16:18:29.604Z,100781.53
2023-04-19T16:20:56.967Z,100768.00
2023-04-19T16:23:24.521Z,100761.84
2023-04-19T16:25:53.369Z,100766.00
2023-04-19T16:28:21.683Z,100767.41
2023-04-19T16:30:49.027Z,100757.38
2023-04-19T16:33:16.725Z,100759.22
2023-04-19T16:35:44.753Z,100753.75
2023-04-19T16:38:12.153Z,100759.41
2023-04-19T16:40:39.589Z,100759.09
2023-04-19T16:43:06.981Z,100753.84
2023-04-19T16:45:34.461Z,100769.63
2023-04-19T16:48:01.980Z,100769.16
2023-04-19T16:50:29.742Z,100781.44
2023-04-19T16:52:57.081Z,100780.78
2023-04-19T16:55:24.591Z,100786.91
2023-04-19T16:57:53.782Z,100786.81
2023-04-19T17:00:22.039Z,100789.06
2023-04-19T17:02:49.565Z,100799.16
2023-04-19T17:05:16.979Z,100785.00
2023-04-19T17:07:44.435Z,100790.78
2023-04-19T17:10:12.639Z,100797.69
2023-04-19T17:12:40.463Z,100799.19
2023-04-19T17:15:08.230Z,100802.16
2023-04-19T17:17:35.782Z,100801.41
2023-04-19T17:20:05.862Z,100798.47
2023-04-19T17:22:33.401Z,100794.34
2023-04-19T17:25:00.767Z,100802.06
2023-04-19T17:27:28.204Z,100792.97
2023-04-19T17:29:55.619Z,100795.47
2023-04-19T17:32:23.099Z,100793.97
2023-04-19T17:34:50.496Z,100790.63
2023-04-19T17:37:17.858Z,100800.53
2023-04-19T17:39:45.439Z,100795.13
2023-04-19T17:42:12.763Z,100794.47
2023-04-19T17:44:40.187Z,100795.66
2023-04-19T17:47:07.682Z,100809.03
2023-04-19T17:49:35.208Z,100796.78
2023-04-19T17:52:02.562Z,100796.59
2023-04-19T17:54:30.138Z,100795.91
2023-04-19T17:56:59.488Z,100785.69
2023-04-19T17:59:26.992Z,100787.06
2023-04-19T18:01:54.612Z,100782.66
2023-04-19T18:04:22.220Z,100783.16
2023-04-19T18:06:49.965Z,100770.38
2023-04-19T18:09:20.882Z,100782.28
2023-04-19T18:11:48.483Z,100772.94
2023-04-19T18:14:15.886Z,100762.75
2023-04-19T18:16:43.530Z,100758.72
2023-04-19T18:19:11.061Z,100750.81
2023-04-19T18:21:38.714Z,100757.25
2023-04-19T18:24:06.542Z,100753.38
2023-04-19T18:26:41.247Z,100755.41
2023-04-19T18:29:09.366Z,100745.31
2023-04-19T18:31:36.810Z,100750.13
2023-04-19T18:34:04.300Z,100755.13
2023-04-19T18:36:32.230Z,100752.69
2023-04-19T18:38:59.891Z,100748.97
2023-04-19T18:41:27.263Z,100746.91
2023-04-19T18:44:25.864Z,100747.84
2023-04-19T18:46:42.204Z,100739.75
2023-04-19T18:49:10.380Z,100738.97
2023-04-19T18:51:38.675Z,100734.84
2023-04-19T18:54:06.194Z,100738.41
2023-04-19T18:59:04.023Z,100729.53
2023-04-19T19:01:33.438Z,100733.91
2023-04-19T19:06:33.027Z,100727.91
2023-04-19T19:09:00.844Z,100723.91
2023-04-19T19:11:51.736Z,100721.13
2023-04-19T19:14:16.185Z,100719.19
2023-04-19T19:16:51.236Z,100716.75
2023-04-19T19:19:22.666Z,100717.78
2023-04-19T19:21:52.205Z,100713.66
2023-04-19T19:24:19.751Z,100715.31
2023-04-19T19:26:48.472Z,100702.16
2023-04-19T19:29:17.197Z,100690.41
2023-04-19T19:31:44.874Z,100699.38
2023-04-19T19:34:23.444Z,100700.53
2023-04-19T19:36:55.045Z,100705.94
2023-04-19T19:39:22.635Z,100700.44
2023-04-19T19:42:05.179Z,100694.41
2023-04-19T19:44:33.852Z,100692.72
2023-04-19T19:47:01.404Z,100695.00
2023-04-19T19:49:28.970Z,100689.63
2023-04-19T19:51:59.475Z,100684.78
2023-04-19T19:54:27.567Z,100686.38
2023-04-19T19:59:29.879Z,100674.94
2023-04-19T20:01:58.098Z,100674.53
2023-04-19T20:04:26.026Z,100675.28
2023-04-19T20:09:24.341Z,100672.53
2023-04-19T20:11:51.959Z,100671.59
2023-04-19T20:14:21.849Z,100675.66
2023-04-19T20:16:49.430Z,100676.94
2023-04-19T20:19:17.082Z,100678.25
2023-04-19T20:21:44.587Z,100675.34
2023-04-19T20:24:13.294Z,100678.25
2023-04-19T20:26:41.146Z,100680.34
2023-04-19T20:29:08.959Z,100681.59
2023-04-19T20:31:36.573Z,100670.56
2023-04-19T20:34:04.309Z,100670.63
2023-04-19T20:36:32.164Z,100677.97
2023-04-19T20:39:01.933Z,100660.78
2023-04-19T20:41:29.414Z,100665.28
2023-04-19T20:43:57.254Z,100660.84
2023-04-19T20:46:24.810Z,100662.13
2023-04-19T20:48:52.257Z,100665.13
2023-04-19T20:51:19.587Z,100656.09
2023-04-19T20:53:46.976Z,100660.03
2023-04-19T20:56:14.419Z,100651.28
2023-04-19T20:58:41.775Z,100657.53
2023-04-19T21:01:09.664Z,100657.94
2023-04-19T21:03:37.331Z,100655.00
2023-04-19T21:06:04.903Z,100658.09
2023-04-19T21:08:32.494Z,100656.41
2023-04-19T21:10:59.820Z,100642.94
2023-04-19T21:13:28.439Z,100629.09
2023-04-19T21:15:56.017Z,100613.44
2023-04-19T21:18:24.628Z,100621.00
2023-04-19T21:20:52.004Z,100625.00
2023-04-19T21:23:19.379Z,100629.59
2023-04-19T21:25:46.719Z,100625.25
2023-04-19T21:28:14.271Z,100627.50
2023-04-19T21:30:43.468Z,100631.59
2023-04-19T21:33:11.021Z,100625.25
2023-04-19T21:35:38.855Z,100615.28
2023-04-19T21:38:06.836Z,100613.16
2023-04-19T21:40:34.326Z,100623.19
2023-04-19T21:43:01.956Z,100618.19
2023-04-19T21:45:29.396Z,100616.50
2023-04-19T21:47:56.815Z,100619.84
2023-04-19T21:50:24.301Z,100614.72
2023-04-19T21:52:51.775Z,100613.31
2023-04-19T21:55:19.251Z,100600.88
2023-04-19T21:57:46.672Z,100604.31
2023-04-19T22:00:14.367Z,100607.94
2023-04-19T22:02:41.973Z,100598.03
2023-04-19T22:05:09.665Z,100603.38
2023-04-19T22:07:40.704Z,100598.03
2023-04-19T22:10:09.200Z,100585.66
2023-04-19T22:12:45.133Z,100592.09
2023-04-19T22:15:18.897Z,100585.31
2023-04-19T22:17:46.521Z,100590.31
2023-04-19T22:20:15.893Z,100580.19
2023-04-19T22:22:43.506Z,100576.91
2023-04-19T22:25:11.129Z,100573.44
2023-04-19T22:27:39.142Z,100569.03
2023-04-19T22:30:07.734Z,100560.94
2023-04-19T22:32:35.293Z,100552.22
2023-04-19T22:35:02.773Z,100553.03
2023-04-19T22:37:30.243Z,100548.59
2023-04-19T22:39:57.630Z,100545.44
2023-04-19T22:42:24.986Z,100549.63
2023-04-19T22:44:52.361Z,100530.53
2023-04-19T22:47:19.798Z,100526.00
2023-04-19T22:49:47.319Z,100534.47
2023-04-19T22:52:14.735Z,100519.09
2023-04-19T22:54:42.850Z,100519.88
2023-04-19T22:57:12.048Z,100506.00
2023-04-19T22:59:39.753Z,100506.41
2023-04-19T23:02:07.279Z,100495.22
2023-04-19T23:04:38.279Z,100499.84
2023-04-19T23:07:06.253Z,100505.50
2023-04-19T23:09:33.987Z,100514.06
2023-04-19T23:12:01.521Z,100511.75
2023-04-19T23:14:29.594Z,100512.78
2023-04-19T23:16:57.824Z,100511.69
2023-04-19T23:19:25.425Z,100518.81
2023-04-19T23:21:52.832Z,100513.53
2023-04-19T23:24:20.225Z,100503.78
2023-04-19T23:26:47.638Z,100502.13
2023-04-19T23:29:15.322Z,100498.25
2023-04-19T23:31:42.930Z,100481.38
2023-04-19T23:34:10.614Z,100477.09
2023-04-19T23:36:38.206Z,100477.53
2023-04-19T23:39:05.579Z,100484.13
2023-04-19T23:41:33.868Z,100482.47
2023-04-19T23:44:01.247Z,100477.63
2023-04-19T23:46:28.908Z,100478.69
2023-04-19T23:48:56.281Z,100486.44
2023-04-19T23:51:23.655Z,100484.59
2023-04-19T23:53:50.981Z,100484.91
2023-04-19T23:56:18.326Z,100488.25
2023-04-19T23:58:45.679Z,100494.47
